Time;durP1;ratioP1;P1;durP2;ratioP2;P2;SDS_P1;SDS_P2;PMS_P1;PMS_P2;Temp;Humidity;BMP_temperature;BMP_pressure;BME280_temperature;BME280_humidity;BME280_pressure;Samples;Min_cycle;Max_cycle;Signal;HPM_P1;HPM_P2
2022/12/14 00:00:28;;;;;;;;;;;-4.40;99.90;;;;;;5077123;28;20011;-69
2022/12/14 00:02:54;;;;;;;;;;;-4.50;99.90;;;;;;5076864;28;19912;-69
2022/12/14 00:05:20;;;;;;;;;;;-4.40;99.90;;;;;;5076752;28;20065;-68
2022/12/14 00:07:46;;;;;;;;;;;-4.40;99.90;;;;;;5077324;28;20407;-69
2022/12/14 00:10:11;;;;;;;;;;;-4.40;99.90;;;;;;5076716;28;19916;-69
2022/12/14 00:12:37;;;;;;;;;;;-4.40;99.90;;;;;;5076672;28;19912;-66
2022/12/14 00:15:03;;;;;;;;;;;-4.40;99.90;;;;;;5076524;28;19913;-66
2022/12/14 00:17:29;;;;;;;;;;;-4.30;99.90;;;;;;5076526;28;19940;-65
2022/12/14 00:19:54;;;;;;;;;;;-4.30;99.90;;;;;;5076430;28;20390;-65
2022/12/14 00:22:20;;;;;;;;;;;-4.30;99.90;;;;;;5076489;28;19912;-66
2022/12/14 00:24:45;;;;;;;;;;;-4.30;99.90;;;;;;5075177;28;20018;-66
2022/12/14 00:27:11;;;;;;;;;;;-4.30;99.90;;;;;;5076237;28;19983;-65
2022/12/14 00:29:36;;;;;;;;;;;-4.30;99.90;;;;;;5076314;28;19915;-65
2022/12/14 00:32:02;;;;;;;;;;;-4.20;99.90;;;;;;5075738;28;19912;-66
2022/12/14 00:34:28;;;;;;;;;;;-4.30;99.90;;;;;;5076245;28;20399;-66
2022/12/14 00:36:54;;;;;;;;;;;-4.20;99.90;;;;;;5076042;28;20007;-66
2022/12/14 00:39:19;;;;;;;;;;;-4.20;99.90;;;;;;5076128;28;19939;-66
2022/12/14 00:41:45;;;;;;;;;;;-4.20;99.90;;;;;;5076400;28;20382;-66
2022/12/14 00:44:11;;;;;;;;;;;-4.20;99.90;;;;;;5076107;28;20292;-66
2022/12/14 00:46:36;;;;;;;;;;;-4.20;99.90;;;;;;5076220;28;19909;-66
2022/12/14 00:49:02;;;;;;;;;;;-4.20;99.90;;;;;;5076274;28;20011;-66
2022/12/14 00:51:27;;;;;;;;;;;-4.20;99.90;;;;;;5075926;28;20292;-66
2022/12/14 00:53:53;;;;;;;;;;;-4.20;99.90;;;;;;5075891;28;19913;-66
2022/12/14 00:56:19;;;;;;;;;;;-4.20;99.90;;;;;;5075813;28;19912;-66
2022/12/14 00:58:53;;;;;;;;;;;-4.20;99.90;;;;;;5076089;28;19918;-66
2022/12/14 01:01:19;;;;;;;;;;;-4.20;99.90;;;;;;5075772;28;19912;-66
2022/12/14 01:03:44;;;;;;;;;;;-4.20;99.90;;;;;;5075727;28;19999;-66
2022/12/14 01:06:18;;;;;;;;;;;-4.20;99.90;;;;;;5075604;28;20287;-66
2022/12/14 01:08:43;;;;;;;;;;;-4.20;99.90;;;;;;5075586;28;19933;-66
2022/12/14 01:11:09;;;;;;;;;;;-4.20;99.90;;;;;;5075572;28;19920;-66
2022/12/14 01:13:35;;;;;;;;;;;-4.10;99.90;;;;;;5076093;28;19922;-66
2022/12/14 01:16:01;;;;;;;;;;;-4.10;99.90;;;;;;5075492;28;19908;-66
2022/12/14 01:18:27;;;;;;;;;;;-4.10;99.90;;;;;;5075410;28;19934;-66
2022/12/14 01:20:52;;;;;;;;;;;-4.10;99.90;;;;;;5075840;28;20380;-66
2022/12/14 01:23:18;;;;;;;;;;;-4.10;99.90;;;;;;5075666;28;19955;-66
2022/12/14 01:25:43;;;;;;;;;;;-4.10;99.90;;;;;;5075152;28;19923;-66
2022/12/14 01:28:09;;;;;;;;;;;-4.10;99.90;;;;;;5075156;28;19992;-66
2022/12/14 01:30:37;;;;;;;;;;;-4.10;99.90;;;;;;5074005;28;19959;-66
2022/12/14 01:33:03;;;;;;;;;;;-4.20;99.90;;;;;;5075118;28;19908;-66
2022/12/14 01:35:28;;;;;;;;;;;-4.20;99.90;;;;;;5075041;28;19917;-66
2022/12/14 01:37:54;;;;;;;;;;;-4.20;99.90;;;;;;5074382;28;19951;-66
2022/12/14 01:40:19;;;;;;;;;;;-4.20;99.90;;;;;;5074906;28;20322;-66
2022/12/14 01:42:45;;;;;;;;;;;-4.20;99.90;;;;;;5074900;28;20387;-66
2022/12/14 01:45:16;;;;;;;;;;;-4.20;99.90;;;;;;5075419;28;20357;-66
2022/12/14 01:47:43;;;;;;;;;;;-4.20;99.90;;;;;;5075174;28;19909;-66
2022/12/14 01:50:11;;;;;;;;;;;-4.10;99.90;;;;;;5074784;28;19914;-66
2022/12/14 01:52:41;;;;;;;;;;;-4.20;99.90;;;;;;5075020;28;19952;-66
2022/12/14 01:55:21;;;;;;;;;;;-4.10;99.90;;;;;;5074661;28;19950;-66
2022/12/14 01:57:49;;;;;;;;;;;-4.20;99.90;;;;;;5074638;28;19912;-66
2022/12/14 02:00:15;;;;;;;;;;;-4.20;99.90;;;;;;5074546;28;19917;-66
2022/12/14 02:02:47;;;;;;;;;;;-4.20;99.90;;;;;;5074525;28;19919;-66
2022/12/14 02:05:13;;;;;;;;;;;-4.10;99.90;;;;;;5074485;28;19915;-66
2022/12/14 02:07:39;;;;;;;;;;;-4.10;99.90;;;;;;5074434;28;19912;-66
2022/12/14 02:10:05;;;;;;;;;;;-4.10;99.90;;;;;;5074681;28;19962;-66
2022/12/14 02:12:38;;;;;;;;;;;-4.10;99.90;;;;;;5073098;28;20322;-66
2022/12/14 02:15:04;;;;;;;;;;;-4.10;99.90;;;;;;5074264;28;19991;-66
2022/12/14 02:17:30;;;;;;;;;;;-4.10;99.90;;;;;;5074252;28;19974;-66
2022/12/14 02:19:56;;;;;;;;;;;-4.10;99.90;;;;;;5074448;28;19916;-66
2022/12/14 02:22:37;;;;;;;;;;;-4.10;99.90;;;;;;5074225;28;19975;-66
2022/12/14 02:25:03;;;;;;;;;;;-4.10;99.90;;;;;;5074515;28;19909;-66
2022/12/14 02:27:41;;;;;;;;;;;-4.00;99.90;;;;;;5073185;28;19909;-66
2022/12/14 02:30:12;;;;;;;;;;;-4.00;99.90;;;;;;5074401;28;20360;-66
2022/12/14 02:32:53;;;;;;;;;;;-4.00;99.90;;;;;;5074054;28;19908;-66
2022/12/14 02:35:36;;;;;;;;;;;-4.00;99.90;;;;;;5073741;28;19958;-66
2022/12/14 02:38:27;;;;;;;;;;;-4.00;99.90;;;;;;5079519;23;19932;-82
2022/12/14 02:41:21;;;;;;;;;;;-3.90;99.90;;;;;;5074319;28;20011;-82
2022/12/14 02:43:50;;;;;;;;;;;-3.90;99.90;;;;;;5068854;28;19999;-82
2022/12/14 02:46:31;;;;;;;;;;;-3.90;99.90;;;;;;5076211;28;19909;-82
2022/12/14 02:49:03;;;;;;;;;;;-3.90;99.90;;;;;;5075360;28;20265;-82
2022/12/14 02:51:45;;;;;;;;;;;-3.90;99.90;;;;;;5074801;28;20356;-82
2022/12/14 02:54:22;;;;;;;;;;;-3.90;99.90;;;;;;5086467;28;19909;-83
2022/12/14 02:56:54;;;;;;;;;;;-3.90;99.90;;;;;;5077871;28;19909;-82
2022/12/14 02:59:21;;;;;;;;;;;-3.90;99.90;;;;;;5074755;28;19912;-82
2022/12/14 03:01:47;;;;;;;;;;;-3.90;99.90;;;;;;5073840;28;20330;-83
2022/12/14 03:04:13;;;;;;;;;;;-3.90;99.90;;;;;;5075590;28;19999;-82
2022/12/14 03:06:49;;;;;;;;;;;-3.80;99.90;;;;;;5076216;28;19967;-83
2022/12/14 03:09:16;;;;;;;;;;;-3.80;99.90;;;;;;5075720;28;19962;-83
2022/12/14 03:11:42;;;;;;;;;;;-3.80;99.90;;;;;;5077422;28;19908;-82
2022/12/14 03:14:10;;;;;;;;;;;-3.80;99.90;;;;;;5073912;28;19909;-82
2022/12/14 03:16:40;;;;;;;;;;;-3.80;99.90;;;;;;5055229;28;19909;-82
2022/12/14 03:19:24;;;;;;;;;;;-3.80;99.90;;;;;;5069621;28;19935;-82
2022/12/14 03:21:55;;;;;;;;;;;-3.80;99.90;;;;;;5072630;28;19931;-81
2022/12/14 03:24:27;;;;;;;;;;;-3.80;99.90;;;;;;5075974;28;19909;-82
2022/12/14 03:26:59;;;;;;;;;;;-3.80;99.90;;;;;;5075496;28;19909;-82
2022/12/14 03:29:29;;;;;;;;;;;-3.80;99.90;;;;;;5074901;28;19909;-82
2022/12/14 03:31:56;;;;;;;;;;;-3.70;99.90;;;;;;5076046;28;19999;-82
2022/12/14 03:34:27;;;;;;;;;;;-3.70;99.90;;;;;;5071569;28;19912;-81
2022/12/14 03:36:58;;;;;;;;;;;-3.70;99.90;;;;;;5091049;28;20003;-82
2022/12/14 03:39:29;;;;;;;;;;;-3.70;99.90;;;;;;5072655;28;19916;-82
2022/12/14 03:42:10;;;;;;;;;;;-3.70;99.90;;;;;;5074678;28;19908;-81
2022/12/14 03:44:41;;;;;;;;;;;-3.70;99.90;;;;;;5074500;28;19910;-82
2022/12/14 03:47:06;;;;;;;;;;;-3.70;99.90;;;;;;5075029;28;20276;-82
2022/12/14 03:49:47;;;;;;;;;;;-3.70;99.90;;;;;;5071165;28;19996;-82
2022/12/14 03:52:20;;;;;;;;;;;-3.60;99.90;;;;;;5071046;28;19908;-82
2022/12/14 03:54:55;;;;;;;;;;;-3.70;99.90;;;;;;5074520;28;19915;-82
2022/12/14 03:57:33;;;;;;;;;;;-3.70;99.90;;;;;;5077555;28;19935;-82
2022/12/14 04:00:02;;;;;;;;;;;-3.70;99.90;;;;;;5075803;28;20367;-82
2022/12/14 04:02:31;;;;;;;;;;;-3.60;99.90;;;;;;5076887;28;19909;-83
2022/12/14 04:04:59;;;;;;;;;;;-3.60;99.90;;;;;;5080180;28;19909;-82
2022/12/14 04:07:34;;;;;;;;;;;-3.60;99.90;;;;;;5075724;28;19909;-82
2022/12/14 04:10:02;;;;;;;;;;;-3.60;99.90;;;;;;5078806;28;20007;-83
2022/12/14 04:21:12;;;;;;;;;;;-3.60;99.90;;;;;;5079626;28;20004;-82
2022/12/14 04:26:28;;;;;;;;;;;-3.60;99.90;;;;;;5079568;28;19916;-82
2022/12/14 04:31:52;;;;;;;;;;;-3.50;99.90;;;;;;5079297;28;19916;-81
2022/12/14 04:34:19;;;;;;;;;;;-3.50;99.90;;;;;;5076877;28;19908;-82
2022/12/14 04:36:51;;;;;;;;;;;-3.50;99.90;;;;;;5076672;28;19920;-81
2022/12/14 04:39:19;;;;;;;;;;;-3.50;99.90;;;;;;5076723;28;19912;-81
2022/12/14 04:41:47;;;;;;;;;;;-3.50;99.90;;;;;;5077900;28;19962;-83
2022/12/14 04:44:49;;;;;;;;;;;-3.50;99.90;;;;;;5067292;28;19916;-84
2022/12/14 04:47:16;;;;;;;;;;;-3.60;99.90;;;;;;5060112;28;19909;-84
2022/12/14 04:49:49;;;;;;;;;;;-3.50;99.90;;;;;;5059961;28;19909;-84
2022/12/14 04:52:18;;;;;;;;;;;-3.50;99.90;;;;;;5068174;28;19924;-83
2022/12/14 04:54:44;;;;;;;;;;;-3.50;99.90;;;;;;5091871;28;19958;-84
2022/12/14 04:57:14;;;;;;;;;;;-3.50;99.90;;;;;;5075468;28;19909;-84
2022/12/14 04:59:40;;;;;;;;;;;-3.60;99.90;;;;;;5078633;28;19913;-84
2022/12/14 05:02:15;;;;;;;;;;;-3.50;99.90;;;;;;5067689;28;19920;-83
2022/12/14 05:04:54;;;;;;;;;;;-3.60;99.90;;;;;;5083144;28;20365;-83
2022/12/14 05:07:25;;;;;;;;;;;-3.60;99.90;;;;;;5077983;28;19915;-83
2022/12/14 05:09:55;;;;;;;;;;;-3.60;99.90;;;;;;5081510;28;19919;-83
2022/12/14 05:12:20;;;;;;;;;;;-3.60;99.90;;;;;;5079716;28;19909;-83
2022/12/14 05:14:48;;;;;;;;;;;-3.50;99.90;;;;;;5073678;28;19915;-82
2022/12/14 05:17:14;;;;;;;;;;;-3.50;99.90;;;;;;5062254;28;20057;-82
2022/12/14 05:19:44;;;;;;;;;;;-3.50;99.90;;;;;;5076149;28;19991;-81
2022/12/14 05:22:09;;;;;;;;;;;-3.50;99.90;;;;;;5076236;28;19908;-82
2022/12/14 05:24:35;;;;;;;;;;;-3.50;99.90;;;;;;5056660;28;19913;-82
2022/12/14 05:27:00;;;;;;;;;;;-3.50;99.90;;;;;;5076584;28;20003;-82
2022/12/14 05:29:26;;;;;;;;;;;-3.50;99.90;;;;;;5076583;28;19944;-82
2022/12/14 05:31:51;;;;;;;;;;;-3.50;99.90;;;;;;5059016;28;19916;-82
2022/12/14 05:34:17;;;;;;;;;;;-3.50;99.90;;;;;;5078189;28;19966;-82
2022/12/14 05:36:43;;;;;;;;;;;-3.50;99.90;;;;;;5077498;28;19926;-82
2022/12/14 05:39:08;;;;;;;;;;;-3.50;99.90;;;;;;5074405;28;19959;-82
2022/12/14 05:41:34;;;;;;;;;;;-3.40;99.90;;;;;;5055121;28;19912;-82
2022/12/14 05:43:59;;;;;;;;;;;-3.50;99.90;;;;;;5065809;28;19909;-82
2022/12/14 05:46:25;;;;;;;;;;;-3.40;99.90;;;;;;5070984;28;19912;-82
2022/12/14 05:48:50;;;;;;;;;;;-3.40;99.90;;;;;;5065346;28;19923;-82
2022/12/14 05:51:16;;;;;;;;;;;-3.40;99.90;;;;;;5059005;28;20379;-82
2022/12/14 05:53:42;;;;;;;;;;;-3.40;99.90;;;;;;5058453;28;19913;-82
2022/12/14 05:56:08;;;;;;;;;;;-3.40;99.90;;;;;;5075196;28;20340;-82
2022/12/14 05:58:34;;;;;;;;;;;-3.40;99.90;;;;;;5074493;28;19909;-82
2022/12/14 06:01:03;;;;;;;;;;;-3.40;99.90;;;;;;5075372;28;19916;-82
2022/12/14 06:03:29;;;;;;;;;;;-3.40;99.90;;;;;;5073329;28;19908;-83
2022/12/14 06:06:05;;;;;;;;;;;-3.40;99.90;;;;;;5075130;28;20447;-82
2022/12/14 06:08:53;;;;;;;;;;;-3.40;99.90;;;;;;5076334;28;19970;-82
2022/12/14 06:11:20;;;;;;;;;;;-3.30;99.90;;;;;;5069531;28;19954;-82
2022/12/14 06:13:46;;;;;;;;;;;-3.30;99.90;;;;;;5054899;28;19909;-82
2022/12/14 06:16:15;;;;;;;;;;;-3.30;99.90;;;;;;5055845;28;20003;-82
2022/12/14 06:18:45;;;;;;;;;;;-3.30;99.90;;;;;;5056133;28;19999;-82
2022/12/14 06:21:12;;;;;;;;;;;-3.40;99.90;;;;;;5054553;28;19917;-82
2022/12/14 06:23:37;;;;;;;;;;;-3.30;99.90;;;;;;5055136;28;19913;-82
2022/12/14 06:26:03;;;;;;;;;;;-3.30;99.90;;;;;;5054714;28;19981;-82
2022/12/14 06:28:28;;;;;;;;;;;-3.30;99.90;;;;;;5071790;28;20429;-82
2022/12/14 06:30:54;;;;;;;;;;;-3.30;99.90;;;;;;5076783;28;20001;-82
2022/12/14 06:33:20;;;;;;;;;;;-3.30;99.90;;;;;;5074151;28;20414;-82
2022/12/14 06:35:45;;;;;;;;;;;-3.30;99.90;;;;;;5076265;28;19918;-82
2022/12/14 06:38:11;;;;;;;;;;;-3.30;99.90;;;;;;5058490;28;19925;-82
2022/12/14 06:40:37;;;;;;;;;;;-3.30;99.90;;;;;;5077194;28;19917;-82
2022/12/14 06:43:02;;;;;;;;;;;-3.30;99.90;;;;;;5074895;28;19909;-82
2022/12/14 06:45:28;;;;;;;;;;;-3.30;99.90;;;;;;5074092;28;19909;-83
2022/12/14 06:47:54;;;;;;;;;;;-3.30;99.90;;;;;;5073684;28;19927;-82
2022/12/14 06:50:20;;;;;;;;;;;-3.30;99.90;;;;;;5075329;28;19913;-80
2022/12/14 06:52:49;;;;;;;;;;;-3.30;99.90;;;;;;5079381;28;19916;-80
2022/12/14 06:55:15;;;;;;;;;;;-3.30;99.90;;;;;;5084677;28;20014;-80
2022/12/14 06:57:40;;;;;;;;;;;-3.30;99.90;;;;;;5076185;28;19912;-80
2022/12/14 07:00:06;;;;;;;;;;;-3.20;99.90;;;;;;5059323;28;19917;-80
2022/12/14 07:02:32;;;;;;;;;;;-3.20;99.90;;;;;;5076780;28;19912;-80
2022/12/14 07:04:57;;;;;;;;;;;-3.20;99.90;;;;;;5076991;28;19919;-80
2022/12/14 07:07:23;;;;;;;;;;;-3.20;99.90;;;;;;5076358;28;19913;-80
2022/12/14 07:09:48;;;;;;;;;;;-3.20;99.90;;;;;;5070066;28;19963;-80
2022/12/14 07:12:14;;;;;;;;;;;-3.10;99.90;;;;;;5070488;28;19916;-80
2022/12/14 07:14:40;;;;;;;;;;;-3.10;99.90;;;;;;5075694;28;19915;-80
2022/12/14 07:17:05;;;;;;;;;;;-3.10;99.90;;;;;;5076810;28;19912;-80
2022/12/14 07:19:31;;;;;;;;;;;-3.10;99.90;;;;;;5074963;28;19970;-80
2022/12/14 07:21:56;;;;;;;;;;;-3.10;99.90;;;;;;5076233;28;19908;-80
2022/12/14 07:24:22;;;;;;;;;;;-3.10;99.90;;;;;;5074113;28;19916;-80
2022/12/14 07:26:47;;;;;;;;;;;-3.10;99.90;;;;;;5053731;28;20023;-80
2022/12/14 07:29:14;;;;;;;;;;;-3.00;99.90;;;;;;5073294;28;20427;-80
2022/12/14 07:31:39;;;;;;;;;;;-3.00;99.90;;;;;;5074181;28;19913;-80
2022/12/14 07:34:05;;;;;;;;;;;-3.00;99.90;;;;;;5073244;28;19927;-80
2022/12/14 07:36:31;;;;;;;;;;;-3.00;99.90;;;;;;5066144;28;19925;-80
2022/12/14 07:38:57;;;;;;;;;;;-3.00;99.90;;;;;;5074215;28;19920;-80
2022/12/14 07:41:24;;;;;;;;;;;-3.00;99.90;;;;;;5077728;28;20284;-80
2022/12/14 07:43:50;;;;;;;;;;;-2.90;99.90;;;;;;5076165;28;19915;-80
2022/12/14 07:46:17;;;;;;;;;;;-2.90;99.90;;;;;;5077101;28;19919;-80
2022/12/14 07:48:46;;;;;;;;;;;-2.90;99.90;;;;;;5077299;28;19916;-80
2022/12/14 07:51:13;;;;;;;;;;;-2.90;99.90;;;;;;5077188;28;20003;-80
2022/12/14 07:53:39;;;;;;;;;;;-2.80;99.90;;;;;;5076398;28;19909;-80
2022/12/14 07:56:10;;;;;;;;;;;-2.80;99.90;;;;;;5076488;28;19915;-80
2022/12/14 07:58:35;;;;;;;;;;;-2.80;99.90;;;;;;5075296;28;19909;-80
2022/12/14 08:01:18;;;;;;;;;;;-2.70;99.90;;;;;;5077303;28;19912;-80
2022/12/14 08:03:54;;;;;;;;;;;-2.70;99.90;;;;;;5078818;28;19915;-80
2022/12/14 08:06:20;;;;;;;;;;;-2.60;99.90;;;;;;5059088;28;19916;-80
2022/12/14 08:08:46;;;;;;;;;;;-2.60;99.90;;;;;;5071178;28;19915;-80
2022/12/14 08:11:12;;;;;;;;;;;-2.60;99.90;;;;;;5067173;28;19916;-80
2022/12/14 08:13:38;;;;;;;;;;;-2.50;99.90;;;;;;5073663;28;19909;-80
2022/12/14 08:16:04;;;;;;;;;;;-2.50;99.90;;;;;;5061618;28;19919;-80
2022/12/14 08:18:30;;;;;;;;;;;-2.40;99.90;;;;;;5075614;28;20391;-80
2022/12/14 08:20:56;;;;;;;;;;;-2.40;99.90;;;;;;5078161;28;19913;-80
2022/12/14 08:23:21;;;;;;;;;;;-2.30;99.90;;;;;;5078758;28;19917;-80
2022/12/14 08:25:54;;;;;;;;;;;-2.30;99.90;;;;;;5079233;28;19913;-81
2022/12/14 08:28:20;;;;;;;;;;;-2.30;99.90;;;;;;5078859;28;20009;-80
2022/12/14 08:30:45;;;;;;;;;;;-2.30;99.90;;;;;;5077410;28;19920;-80
2022/12/14 08:33:11;;;;;;;;;;;-2.30;99.90;;;;;;5077428;28;20300;-80
2022/12/14 08:35:36;;;;;;;;;;;-2.30;99.90;;;;;;5070836;28;19913;-80
2022/12/14 08:38:02;;;;;;;;;;;-2.20;99.90;;;;;;5068124;28;19927;-81
2022/12/14 08:40:28;;;;;;;;;;;-2.20;99.90;;;;;;5076118;28;19916;-80
2022/12/14 08:42:54;;;;;;;;;;;-2.20;99.90;;;;;;5077885;28;19912;-80
2022/12/14 08:45:19;;;;;;;;;;;-2.20;99.90;;;;;;5077342;28;19913;-80
2022/12/14 08:47:48;;;;;;;;;;;-2.10;99.90;;;;;;5075412;28;19913;-81
2022/12/14 08:50:14;;;;;;;;;;;-2.10;99.90;;;;;;5072668;28;19915;-81
2022/12/14 08:52:39;;;;;;;;;;;-2.10;99.90;;;;;;5079537;28;19913;-80
2022/12/14 08:55:05;;;;;;;;;;;-2.00;99.90;;;;;;5087548;28;20002;-80
2022/12/14 08:57:31;;;;;;;;;;;-2.00;99.90;;;;;;5076842;28;21128;-81
2022/12/14 08:59:57;;;;;;;;;;;-2.00;99.90;;;;;;5077631;28;19923;-81
2022/12/14 09:02:22;;;;;;;;;;;-2.00;99.90;;;;;;5075742;28;19928;-81
2022/12/14 09:04:48;;;;;;;;;;;-2.00;99.90;;;;;;5078577;28;19908;-81
2022/12/14 09:07:14;;;;;;;;;;;-1.90;99.90;;;;;;5061230;28;19919;-81
2022/12/14 09:09:39;;;;;;;;;;;-1.90;99.90;;;;;;5073475;28;19909;-80
2022/12/14 09:12:06;;;;;;;;;;;-1.90;99.90;;;;;;5057272;28;19955;-81
2022/12/14 09:14:32;;;;;;;;;;;-1.90;99.90;;;;;;5076990;28;19913;-80
2022/12/14 09:16:58;;;;;;;;;;;-1.80;99.90;;;;;;5076916;28;19913;-81
2022/12/14 09:19:24;;;;;;;;;;;-1.80;99.90;;;;;;5075771;28;19953;-80
2022/12/14 09:21:49;;;;;;;;;;;-1.80;99.90;;;;;;5073946;28;19970;-81
2022/12/14 09:24:15;;;;;;;;;;;-1.70;99.90;;;;;;5077959;28;19919;-81
2022/12/14 09:26:40;;;;;;;;;;;-1.60;99.90;;;;;;5060028;28;19923;-81
2022/12/14 09:29:06;;;;;;;;;;;-1.60;99.90;;;;;;5076078;28;19912;-81
2022/12/14 09:31:31;;;;;;;;;;;-1.50;99.90;;;;;;5072571;28;19908;-81
2022/12/14 09:33:57;;;;;;;;;;;-1.40;99.90;;;;;;5073470;28;19919;-81
2022/12/14 09:36:24;;;;;;;;;;;-1.40;99.90;;;;;;5074801;28;19942;-81
2022/12/14 09:38:50;;;;;;;;;;;-1.40;99.90;;;;;;5072254;28;19915;-80
2022/12/14 09:41:33;;;;;;;;;;;-1.40;99.90;;;;;;5075496;28;19912;-80
2022/12/14 09:44:17;;;;;;;;;;;-1.40;99.90;;;;;;5076060;28;19909;-80
2022/12/14 09:46:49;;;;;;;;;;;-1.30;99.90;;;;;;5075527;28;19998;-81
2022/12/14 09:49:37;;;;;;;;;;;-1.30;99.90;;;;;;5076222;28;19995;-81
2022/12/14 09:52:04;;;;;;;;;;;-1.20;99.90;;;;;;5074618;28;20431;-81
2022/12/14 09:54:35;;;;;;;;;;;-1.10;99.90;;;;;;5072975;28;20506;-80
2022/12/14 09:57:04;;;;;;;;;;;-1.00;99.90;;;;;;5075690;28;19941;-81
2022/12/14 09:59:32;;;;;;;;;;;-1.00;99.90;;;;;;5072559;28;20003;-81
2022/12/14 10:02:03;;;;;;;;;;;-1.00;99.90;;;;;;5075697;28;19909;-82
2022/12/14 10:04:43;;;;;;;;;;;-0.90;99.90;;;;;;5075002;28;19908;-82
2022/12/14 10:07:16;;;;;;;;;;;-0.90;99.90;;;;;;5075968;28;19908;-82
2022/12/14 10:09:54;;;;;;;;;;;-0.80;99.90;;;;;;5068991;28;20384;-82
2022/12/14 10:12:25;;;;;;;;;;;-0.60;99.90;;;;;;5072341;28;20003;-82
2022/12/14 10:15:00;;;;;;;;;;;-0.50;99.90;;;;;;5066157;28;19936;-82
2022/12/14 10:17:51;;;;;;;;;;;-0.50;99.90;;;;;;5056355;28;19948;-82
2022/12/14 10:20:20;;;;;;;;;;;-0.40;99.90;;;;;;5071420;28;19913;-82
2022/12/14 10:22:48;;;;;;;;;;;-0.40;99.90;;;;;;5076118;28;20273;-83
2022/12/14 10:25:16;;;;;;;;;;;-0.40;99.90;;;;;;5074521;28;20427;-82
2022/12/14 10:27:46;;;;;;;;;;;-0.40;99.90;;;;;;5073785;28;19908;-83
2022/12/14 10:30:16;;;;;;;;;;;-0.40;99.90;;;;;;5055012;28;19913;-81
2022/12/14 10:32:53;;;;;;;;;;;-0.40;99.90;;;;;;5069952;28;19912;-82
2022/12/14 10:35:22;;;;;;;;;;;-0.40;99.90;;;;;;5067916;28;19955;-82
2022/12/14 10:37:52;;;;;;;;;;;-0.30;99.90;;;;;;5073089;28;19924;-81
2022/12/14 10:40:31;;;;;;;;;;;-0.30;99.90;;;;;;5073334;28;19913;-83
2022/12/14 10:43:00;;;;;;;;;;;-0.30;99.90;;;;;;5071707;28;19915;-82
2022/12/14 10:45:34;;;;;;;;;;;-0.40;99.90;;;;;;5072627;28;20002;-82
2022/12/14 10:48:03;;;;;;;;;;;-0.30;99.90;;;;;;5066970;28;19913;-82
2022/12/14 10:50:45;;;;;;;;;;;-0.30;99.90;;;;;;5074855;28;19909;-83
2022/12/14 10:53:14;;;;;;;;;;;-0.20;99.90;;;;;;5078946;28;19909;-83
2022/12/14 10:55:41;;;;;;;;;;;-0.10;99.90;;;;;;5084532;28;19908;-83
2022/12/14 10:58:09;;;;;;;;;;;-0.10;99.90;;;;;;5075100;28;19916;-83
2022/12/14 11:00:35;;;;;;;;;;;0.00;99.90;;;;;;5075751;28;19916;-83
2022/12/14 11:03:01;;;;;;;;;;;0.10;99.90;;;;;;5056192;28;19913;-83
2022/12/14 11:05:33;;;;;;;;;;;0.10;99.90;;;;;;5055025;28;20361;-83
2022/12/14 11:07:58;;;;;;;;;;;0.10;99.90;;;;;;5055026;28;19909;-83
2022/12/14 11:10:28;;;;;;;;;;;0.20;99.90;;;;;;5066357;28;19953;-83
2022/12/14 11:12:57;;;;;;;;;;;0.20;99.90;;;;;;5078207;28;19915;-83
2022/12/14 11:15:26;;;;;;;;;;;0.30;99.90;;;;;;5077979;28;19955;-83
2022/12/14 11:17:59;;;;;;;;;;;0.30;99.90;;;;;;5077110;28;20326;-83
2022/12/14 11:20:25;;;;;;;;;;;0.30;99.90;;;;;;5077712;28;19913;-83
2022/12/14 11:22:55;;;;;;;;;;;0.40;99.90;;;;;;5054421;28;20358;-83
2022/12/14 11:25:28;;;;;;;;;;;0.40;99.90;;;;;;5067972;28;19916;-83
2022/12/14 11:27:54;;;;;;;;;;;0.50;99.90;;;;;;5076122;28;19909;-83
2022/12/14 11:30:20;;;;;;;;;;;0.50;99.90;;;;;;5076305;28;19912;-82
2022/12/14 11:32:47;;;;;;;;;;;0.50;99.90;;;;;;5074244;28;20133;-83
2022/12/14 11:35:16;;;;;;;;;;;0.60;99.90;;;;;;5076662;28;20038;-83
2022/12/14 11:37:42;;;;;;;;;;;0.60;99.90;;;;;;5075793;28;19932;-83
2022/12/14 11:40:17;;;;;;;;;;;0.70;99.90;;;;;;5076755;28;19916;-83
2022/12/14 11:42:47;;;;;;;;;;;0.70;99.90;;;;;;5077493;28;19919;-83
2022/12/14 11:45:18;;;;;;;;;;;0.80;99.90;;;;;;5071292;28;20371;-83
2022/12/14 11:47:43;;;;;;;;;;;0.80;99.90;;;;;;5071393;28;20257;-83
2022/12/14 11:50:27;;;;;;;;;;;0.80;99.90;;;;;;5074831;28;19942;-83
2022/12/14 11:53:02;;;;;;;;;;;0.80;99.90;;;;;;5068571;28;19908;-83
2022/12/14 11:55:28;;;;;;;;;;;0.90;99.90;;;;;;5077634;28;19954;-84
2022/12/14 11:57:57;;;;;;;;;;;0.90;99.90;;;;;;5059448;28;20327;-84
2022/12/14 12:00:23;;;;;;;;;;;0.90;99.90;;;;;;5078197;28;19912;-83
2022/12/14 12:03:05;;;;;;;;;;;0.90;99.90;;;;;;5075989;28;19987;-84
2022/12/14 12:05:32;;;;;;;;;;;0.90;99.90;;;;;;5063907;28;20008;-84
2022/12/14 12:07:58;;;;;;;;;;;1.00;99.90;;;;;;5075177;28;19908;-84
2022/12/14 12:10:25;;;;;;;;;;;1.10;99.90;;;;;;5076812;28;19908;-84
2022/12/14 12:12:55;;;;;;;;;;;1.20;99.90;;;;;;5075501;28;19916;-84
2022/12/14 12:15:53;;;;;;;;;;;1.20;99.90;;;;;;5074732;28;19909;-85
2022/12/14 12:18:21;;;;;;;;;;;1.30;99.90;;;;;;5064208;28;19909;-85
2022/12/14 12:20:58;;;;;;;;;;;1.30;99.90;;;;;;5075344;28;19913;-85
2022/12/14 12:23:26;;;;;;;;;;;1.30;99.90;;;;;;5065412;28;19954;-85
2022/12/14 12:25:53;;;;;;;;;;;1.40;99.90;;;;;;5057353;28;19912;-84
2022/12/14 12:28:42;;;;;;;;;;;1.40;99.90;;;;;;5073599;28;19909;-84
2022/12/14 12:31:10;;;;;;;;;;;1.40;99.90;;;;;;5071515;28;19916;-84
2022/12/14 12:33:48;;;;;;;;;;;1.40;99.90;;;;;;5074959;28;20328;-85
2022/12/14 12:36:16;;;;;;;;;;;1.40;99.90;;;;;;5076794;28;19913;-86
2022/12/14 12:38:44;;;;;;;;;;;1.40;99.90;;;;;;5070291;28;19912;-86
2022/12/14 12:41:22;;;;;;;;;;;1.40;99.90;;;;;;5077020;28;19937;-84
2022/12/14 12:43:58;;;;;;;;;;;1.50;99.90;;;;;;5074978;28;20022;-85
2022/12/14 12:46:32;;;;;;;;;;;1.40;99.90;;;;;;5075142;28;20689;-84
2022/12/14 12:49:04;;;;;;;;;;;1.40;99.90;;;;;;5075330;28;19909;-84
2022/12/14 12:51:42;;;;;;;;;;;1.30;99.90;;;;;;5075459;28;19909;-85
2022/12/14 12:54:11;;;;;;;;;;;1.30;99.90;;;;;;5068073;28;19908;-85
2022/12/14 12:57:05;;;;;;;;;;;1.30;99.90;;;;;;5086201;28;19909;-85
2022/12/14 12:59:44;;;;;;;;;;;1.20;99.90;;;;;;5065977;28;19912;-85
2022/12/14 13:02:16;;;;;;;;;;;1.20;99.90;;;;;;5075149;28;20268;-85
2022/12/14 13:04:43;;;;;;;;;;;1.10;99.90;;;;;;5076149;28;20284;-85
2022/12/14 13:07:22;;;;;;;;;;;1.10;99.90;;;;;;5074666;28;19931;-85
2022/12/14 13:09:59;;;;;;;;;;;1.10;99.90;;;;;;5069079;28;19909;-85
2022/12/14 13:12:35;;;;;;;;;;;1.00;99.90;;;;;;5074986;28;19934;-85
2022/12/14 13:15:01;;;;;;;;;;;1.00;99.90;;;;;;5074996;28;20368;-85
2022/12/14 13:17:27;;;;;;;;;;;1.00;99.90;;;;;;5076225;28;19909;-85
2022/12/14 13:19:54;;;;;;;;;;;1.00;99.90;;;;;;5075863;28;19935;-85
2022/12/14 13:22:24;;;;;;;;;;;1.10;99.90;;;;;;5075240;28;19958;-85
2022/12/14 13:24:50;;;;;;;;;;;1.10;99.90;;;;;;5074943;28;19912;-85
2022/12/14 13:27:25;;;;;;;;;;;1.20;99.90;;;;;;5074788;28;19909;-85
2022/12/14 13:29:54;;;;;;;;;;;1.20;99.90;;;;;;5080260;28;19908;-85
2022/12/14 13:32:38;;;;;;;;;;;1.30;99.90;;;;;;5073918;28;19909;-85
2022/12/14 13:35:03;;;;;;;;;;;1.20;99.90;;;;;;5074683;28;19908;-85
2022/12/14 13:37:41;;;;;;;;;;;1.30;99.90;;;;;;5075119;28;20330;-85
2022/12/14 13:40:33;;;;;;;;;;;1.30;99.90;;;;;;5073188;28;19912;-84
2022/12/14 13:43:06;;;;;;;;;;;1.40;99.90;;;;;;5072913;28;20017;-85
2022/12/14 13:45:36;;;;;;;;;;;1.40;99.90;;;;;;5075714;28;20437;-85
2022/12/14 13:48:05;;;;;;;;;;;1.40;99.90;;;;;;5073983;28;19965;-86
2022/12/14 13:50:33;;;;;;;;;;;1.40;99.90;;;;;;5054424;28;19909;-86
2022/12/14 13:53:01;;;;;;;;;;;1.30;99.90;;;;;;5053952;28;19916;-87
2022/12/14 13:55:39;;;;;;;;;;;1.30;99.90;;;;;;5055312;28;19916;-86
2022/12/14 13:58:25;;;;;;;;;;;1.30;99.90;;;;;;5054055;28;19909;-85
2022/12/14 14:00:52;;;;;;;;;;;1.20;99.90;;;;;;5055805;28;19912;-85
2022/12/14 14:03:33;;;;;;;;;;;1.20;99.90;;;;;;5073975;28;19915;-85
2022/12/14 14:06:14;;;;;;;;;;;1.20;99.90;;;;;;5074870;28;19913;-85
2022/12/14 14:08:41;;;;;;;;;;;1.10;99.90;;;;;;5080285;28;19908;-85
2022/12/14 14:11:21;;;;;;;;;;;1.00;99.90;;;;;;5073519;28;19908;-85
2022/12/14 14:13:47;;;;;;;;;;;1.00;99.90;;;;;;5071942;28;19915;-85
2022/12/14 14:16:29;;;;;;;;;;;0.90;99.90;;;;;;5073361;28;19908;-85
2022/12/14 14:19:07;;;;;;;;;;;0.90;99.90;;;;;;5074429;28;19930;-85
2022/12/14 14:21:44;;;;;;;;;;;0.90;99.90;;;;;;5055156;28;20182;-84
2022/12/14 14:24:16;;;;;;;;;;;0.80;99.90;;;;;;5071993;28;19908;-84
2022/12/14 14:26:42;;;;;;;;;;;0.70;99.90;;;;;;5074146;28;19966;-84
2022/12/14 14:29:16;;;;;;;;;;;0.70;99.90;;;;;;5072821;28;19908;-85
2022/12/14 14:31:55;;;;;;;;;;;0.60;99.90;;;;;;5073159;28;20341;-85
2022/12/14 14:34:31;;;;;;;;;;;0.60;99.90;;;;;;5073580;28;19954;-85
2022/12/14 14:36:57;;;;;;;;;;;0.50;99.90;;;;;;5072924;28;19931;-85
2022/12/14 14:39:32;;;;;;;;;;;0.50;99.90;;;;;;5072852;28;20007;-85
2022/12/14 14:41:59;;;;;;;;;;;0.40;99.90;;;;;;5057242;28;20276;-84
2022/12/14 14:44:48;;;;;;;;;;;0.40;99.90;;;;;;5054052;28;19916;-84
2022/12/14 14:47:23;;;;;;;;;;;0.30;99.90;;;;;;5064536;28;19954;-84
2022/12/14 14:49:51;;;;;;;;;;;0.20;99.90;;;;;;5054229;28;20372;-84